createdAt,value
2022-10-17T00:02:23.505Z,8.67
2022-10-17T00:05:49.614Z,7.50
2022-10-17T00:09:16.488Z,7.93
2022-10-17T00:12:41.517Z,8.57
2022-10-17T00:16:05.601Z,8.03
2022-10-17T00:19:30.186Z,8.33
2022-10-17T00:22:54.107Z,8.70
2022-10-17T00:26:18.621Z,7.10
2022-10-17T00:29:44.545Z,7.17
2022-10-17T00:33:09.235Z,8.50
2022-10-17T00:36:38.962Z,12.53
2022-10-17T00:40:04.224Z,8.63
2022-10-17T00:43:29.615Z,11.57
2022-10-17T00:46:59.085Z,7.70
2022-10-17T00:50:23.446Z,9.53
2022-10-17T00:53:47.580Z,8.70
2022-10-17T00:57:13.828Z,8.63
2022-10-17T01:00:40.805Z,10.20
2022-10-17T01:04:06.797Z,8.00
2022-10-17T01:07:34.808Z,11.80
2022-10-17T01:11:12.240Z,7.87
2022-10-17T01:14:48.049Z,10.07
2022-10-17T01:18:26.421Z,10.43
2022-10-17T01:21:56.176Z,12.97
2022-10-17T01:25:30.644Z,8.73
2022-10-17T01:29:15.725Z,13.47
2022-10-17T01:32:49.571Z,13.40
2022-10-17T01:36:21.844Z,10.30
2022-10-17T01:39:49.157Z,10.37
2022-10-17T01:43:19.828Z,8.73
2022-10-17T01:46:48.286Z,9.20
2022-10-17T01:50:21.893Z,11.47
2022-10-17T01:53:51.046Z,9.20
2022-10-17T01:57:21.333Z,13.80
2022-10-17T02:00:48.460Z,10.67
2022-10-17T02:04:12.834Z,12.00
2022-10-17T02:07:38.619Z,12.03
2022-10-17T02:11:06.936Z,9.40
2022-10-17T02:14:42.665Z,12.63
2022-10-17T02:18:22.351Z,11.63
2022-10-17T02:21:54.844Z,12.13
2022-10-17T02:25:30.542Z,10.47
2022-10-17T02:29:04.271Z,12.47
2022-10-17T02:32:35.143Z,10.50
2022-10-17T02:36:05.100Z,11.83
2022-10-17T02:39:31.002Z,9.77
2022-10-17T02:42:59.497Z,10.80
2022-10-17T02:46:25.860Z,11.80
2022-10-17T02:49:53.035Z,13.63
2022-10-17T02:53:26.589Z,10.70
2022-10-17T02:56:56.621Z,13.60
2022-10-17T03:00:23.639Z,12.33
2022-10-17T03:03:47.793Z,10.13
2022-10-17T03:07:12.329Z,14.20
2022-10-17T03:10:36.458Z,13.40
2022-10-17T03:14:00.470Z,11.73
2022-10-17T03:17:26.678Z,10.73
2022-10-17T03:20:50.318Z,7.67
2022-10-17T03:24:14.513Z,12.10
2022-10-17T03:27:38.330Z,10.60
2022-10-17T03:31:08.083Z,11.23
2022-10-17T03:34:34.908Z,8.27
2022-10-17T03:37:59.366Z,8.07
2022-10-17T03:41:27.190Z,7.30
2022-10-17T03:44:53.498Z,9.07
2022-10-17T03:48:17.344Z,6.80
2022-10-17T03:51:42.734Z,7.37
2022-10-17T03:55:10.814Z,8.00
2022-10-17T03:58:36.361Z,8.30
2022-10-17T04:02:00.457Z,7.23
2022-10-17T04:05:25.570Z,6.00
2022-10-17T04:08:51.968Z,8.40
2022-10-17T04:12:25.434Z,6.20
2022-10-17T04:15:56.147Z,7.70
2022-10-17T04:19:20.437Z,9.73
2022-10-17T04:22:44.400Z,7.83
2022-10-17T04:26:11.804Z,6.93
2022-10-17T04:29:37.364Z,7.60
2022-10-17T04:33:08.785Z,9.07
2022-10-17T04:36:33.434Z,8.60
2022-10-17T04:39:58.427Z,10.70
2022-10-17T04:43:34.833Z,6.90
2022-10-17T04:47:03.639Z,8.57
2022-10-17T04:50:28.458Z,6.90
2022-10-17T04:54:23.554Z,7.90
2022-10-17T04:58:01.441Z,6.40
2022-10-17T05:01:28.353Z,8.83
2022-10-17T05:04:53.388Z,7.67
2022-10-17T05:08:18.614Z,9.30
2022-10-17T05:11:43.682Z,6.23
2022-10-17T05:15:10.642Z,8.90
2022-10-17T05:18:35.662Z,6.93
2022-10-17T05:21:59.466Z,7.90
2022-10-17T05:25:24.314Z,7.40
2022-10-17T05:28:48.722Z,10.03
2022-10-17T05:32:16.348Z,7.20
2022-10-17T05:35:46.699Z,7.60
2022-10-17T05:39:19.457Z,11.27
2022-10-17T05:42:47.706Z,9.50
2022-10-17T05:46:12.535Z,7.40
2022-10-17T05:49:48.633Z,10.07
2022-10-17T05:53:23.805Z,8.70
2022-10-17T05:56:53.827Z,7.00
2022-10-17T06:00:23.999Z,11.13
2022-10-17T06:03:55.150Z,10.93
2022-10-17T06:07:20.018Z,9.03
2022-10-17T06:10:48.589Z,9.50
2022-10-17T06:14:15.870Z,8.03
2022-10-17T06:17:41.151Z,7.20
2022-10-17T06:21:06.419Z,8.80
2022-10-17T06:24:34.454Z,6.70
2022-10-17T06:28:07.343Z,7.57
2022-10-17T06:31:33.887Z,9.57
2022-10-17T06:34:58.045Z,12.43
2022-10-17T06:38:22.165Z,7.37
2022-10-17T06:41:48.831Z,6.70
2022-10-17T06:45:17.386Z,7.90
2022-10-17T06:48:50.061Z,8.63
2022-10-17T06:52:32.914Z,7.53
2022-10-17T06:56:15.503Z,7.30
2022-10-17T06:59:47.950Z,6.50
2022-10-17T07:03:24.535Z,7.77
2022-10-17T07:06:49.640Z,10.43
2022-10-17T07:10:17.895Z,6.43
2022-10-17T07:13:42.086Z,7.77
2022-10-17T07:17:06.114Z,11.33
2022-10-17T07:20:31.901Z,6.47
2022-10-17T07:23:55.729Z,6.40
2022-10-17T07:27:19.989Z,7.27
2022-10-17T07:30:44.948Z,7.27
2022-10-17T07:34:11.076Z,7.97
2022-10-17T07:37:40.292Z,7.00
2022-10-17T07:41:07.109Z,10.03
2022-10-17T07:44:30.758Z,7.43
2022-10-17T07:47:57.332Z,5.43
2022-10-17T07:51:21.955Z,9.63
2022-10-17T07:54:47.921Z,5.60
2022-10-17T07:58:12.886Z,7.70
2022-10-17T08:01:36.969Z,8.30
2022-10-17T08:05:00.566Z,6.80
2022-10-17T08:08:24.552Z,10.60
2022-10-17T08:11:49.564Z,11.13
2022-10-17T08:15:13.242Z,6.77
2022-10-17T08:18:37.213Z,7.47
2022-10-17T08:22:01.950Z,6.00
2022-10-17T08:25:26.529Z,13.13
2022-10-17T08:28:52.052Z,6.77
2022-10-17T08:32:16.000Z,14.20
2022-10-17T08:35:39.790Z,8.83
2022-10-17T08:39:03.744Z,9.03
2022-10-17T08:42:58.639Z,6.83
2022-10-17T08:46:24.356Z,13.13
2022-10-17T08:49:52.493Z,7.97
2022-10-17T08:53:21.632Z,5.87
2022-10-17T08:56:49.302Z,12.13
2022-10-17T09:00:19.221Z,6.20
2022-10-17T09:03:56.402Z,5.97
2022-10-17T09:07:27.371Z,8.40
2022-10-17T09:10:58.059Z,6.70
2022-10-17T09:15:02.051Z,7.87
2022-10-17T09:18:29.395Z,6.30
2022-10-17T09:21:59.658Z,12.03
2022-10-17T09:25:23.846Z,8.53
2022-10-17T09:28:53.665Z,8.00
2022-10-17T09:32:22.273Z,8.27
2022-10-17T09:35:48.728Z,7.97
2022-10-17T09:39:18.834Z,7.53
2022-10-17T09:42:43.122Z,6.37
2022-10-17T09:46:10.353Z,7.70
2022-10-17T09:49:35.989Z,7.20
2022-10-17T09:53:08.434Z,6.53
2022-10-17T09:56:59.582Z,5.17
2022-10-17T10:00:25.320Z,6.70
2022-10-17T10:03:50.762Z,5.60
2022-10-17T10:07:14.749Z,7.10
2022-10-17T10:10:42.897Z,5.60
2022-10-17T10:14:21.196Z,8.30
2022-10-17T10:17:44.897Z,8.83
2022-10-17T10:21:13.935Z,8.63
2022-10-17T10:24:37.537Z,7.33
2022-10-17T10:28:01.806Z,8.03
2022-10-17T10:31:36.782Z,10.13
2022-10-17T10:35:04.264Z,7.50
2022-10-17T10:38:29.076Z,7.97
2022-10-17T10:41:53.335Z,6.60
2022-10-17T10:45:35.994Z,7.03
2022-10-17T10:49:06.710Z,12.17
2022-10-17T10:52:35.603Z,9.13
2022-10-17T10:56:02.885Z,10.03
2022-10-17T10:59:33.082Z,10.43
2022-10-17T11:03:03.986Z,8.80
2022-10-17T11:06:31.349Z,14.80
2022-10-17T11:09:59.529Z,7.73
2022-10-17T11:13:28.841Z,8.50
2022-10-17T11:17:05.464Z,8.07
2022-10-17T11:20:37.873Z,6.70
2022-10-17T11:24:11.849Z,9.97
2022-10-17T11:27:36.613Z,8.83
2022-10-17T11:31:07.092Z,10.37
2022-10-17T11:34:36.428Z,9.27
2022-10-17T11:38:11.816Z,12.30
2022-10-17T11:41:43.809Z,7.23
2022-10-17T11:45:13.388Z,7.63
2022-10-17T11:48:43.543Z,8.13
2022-10-17T11:52:44.434Z,6.40
2022-10-17T11:56:12.260Z,7.30
2022-10-17T11:59:54.729Z,9.43
2022-10-17T12:03:35.785Z,8.90
2022-10-17T12:07:11.557Z,9.50
2022-10-17T12:10:46.246Z,9.70
2022-10-17T12:14:51.664Z,8.17
2022-10-17T12:18:19.350Z,7.57
2022-10-17T12:21:56.314Z,10.37
2022-10-17T12:25:23.208Z,9.17
2022-10-17T12:28:49.108Z,9.00
2022-10-17T12:32:13.638Z,8.50
2022-10-17T12:35:39.616Z,8.83
2022-10-17T12:39:51.759Z,7.20
2022-10-17T12:43:39.676Z,7.97
2022-10-17T12:47:39.595Z,6.87
2022-10-17T12:55:07.467Z,7.57
2022-10-17T12:58:36.073Z,12.47
2022-10-17T13:02:03.464Z,9.63
2022-10-17T13:05:31.757Z,11.13
2022-10-17T13:09:04.230Z,8.60
2022-10-17T13:12:29.875Z,10.03
2022-10-17T13:15:55.260Z,10.77
2022-10-17T13:19:23.123Z,10.90
2022-10-17T13:22:47.016Z,7.07
2022-10-17T13:26:20.022Z,9.50
2022-10-17T13:29:45.771Z,10.70
2022-10-17T13:33:33.115Z,7.40
2022-10-17T13:36:59.473Z,8.80
2022-10-17T13:40:49.926Z,11.10
2022-10-17T13:44:18.525Z,10.40
2022-10-17T13:47:42.720Z,11.27
2022-10-17T13:51:10.450Z,15.00
2022-10-17T13:54:38.231Z,10.00
2022-10-17T13:58:11.488Z,13.00
2022-10-17T14:01:38.811Z,13.63
2022-10-17T14:05:16.873Z,11.83
2022-10-17T14:08:50.061Z,9.10
2022-10-17T14:12:16.432Z,9.93
2022-10-17T14:15:47.538Z,9.83
2022-10-17T14:19:24.477Z,13.93
2022-10-17T14:23:04.481Z,8.13
2022-10-17T14:26:37.038Z,12.40
2022-10-17T14:30:02.861Z,11.50
2022-10-17T14:33:30.946Z,9.50
2022-10-17T14:36:56.458Z,9.77
2022-10-17T14:40:23.405Z,11.40
2022-10-17T14:43:55.216Z,6.93
2022-10-17T14:47:42.325Z,9.00
2022-10-17T14:51:10.758Z,12.70
2022-10-17T14:54:38.189Z,9.60
2022-10-17T14:58:02.634Z,7.70
2022-10-17T15:01:26.220Z,13.00
2022-10-17T15:04:49.856Z,11.57
2022-10-17T15:08:15.859Z,17.03
2022-10-17T15:11:40.966Z,9.57
2022-10-17T15:15:04.943Z,10.43
2022-10-17T15:18:28.612Z,8.67
2022-10-17T15:21:52.234Z,13.77
2022-10-17T15:25:15.961Z,13.23
2022-10-17T15:28:40.990Z,11.10
2022-10-17T15:32:04.544Z,17.40
2022-10-17T15:35:29.398Z,10.63
2022-10-17T15:38:55.384Z,10.87
2022-10-17T15:42:18.994Z,12.90
2022-10-17T15:45:44.010Z,9.23
2022-10-17T15:49:11.364Z,9.60
2022-10-17T15:52:34.984Z,10.67
2022-10-17T15:55:59.700Z,12.67
2022-10-17T15:59:27.540Z,14.63
2022-10-17T16:02:52.729Z,14.47
2022-10-17T16:06:16.340Z,8.77
2022-10-17T16:09:40.238Z,11.43
2022-10-17T16:13:03.854Z,8.50
2022-10-17T16:16:28.146Z,11.53
2022-10-17T16:19:53.060Z,11.73
2022-10-17T16:23:16.763Z,9.83
2022-10-17T16:26:40.716Z,9.83
2022-10-17T16:30:04.969Z,10.20
2022-10-17T16:33:28.509Z,11.87
2022-10-17T16:36:53.590Z,18.13
2022-10-17T16:40:17.417Z,16.73
2022-10-17T16:43:41.304Z,11.70
2022-10-17T16:47:04.929Z,16.73
2022-10-17T16:50:31.117Z,12.73
2022-10-17T16:53:59.925Z,20.37
2022-10-17T16:57:23.560Z,11.83
2022-10-17T17:00:47.249Z,16.20
2022-10-17T17:04:10.852Z,29.33
2022-10-17T17:07:34.530Z,54.80
2022-10-17T17:10:59.823Z,18.30
2022-10-17T17:14:23.986Z,20.97
2022-10-17T17:17:51.505Z,71.77
2022-10-17T17:21:17.219Z,89.90
2022-10-17T17:24:41.016Z,23.30
2022-10-17T17:28:07.173Z,53.23
2022-10-17T17:31:33.156Z,15.40
2022-10-17T17:34:56.783Z,9.63
2022-10-17T17:38:20.374Z,32.13
2022-10-17T17:41:45.518Z,19.97
2022-10-17T17:45:11.576Z,51.93
2022-10-17T17:48:37.601Z,34.83
2022-10-17T17:55:29.832Z,14.60
2022-10-17T17:58:56.232Z,14.30
2022-10-17T18:02:21.232Z,13.97
2022-10-17T18:05:44.867Z,12.37
2022-10-17T18:09:09.026Z,11.03
2022-10-17T18:12:34.369Z,15.77
2022-10-17T18:15:59.282Z,13.57
2022-10-17T18:19:24.536Z,17.60
2022-10-17T18:22:48.210Z,14.93
2022-10-17T18:26:11.988Z,17.27
2022-10-17T18:29:35.730Z,14.50
2022-10-17T18:32:59.297Z,16.13
2022-10-17T18:36:25.995Z,14.53
2022-10-17T18:39:51.503Z,16.23
2022-10-17T18:43:15.113Z,20.23
2022-10-17T18:46:40.865Z,16.37
2022-10-17T18:50:05.055Z,18.53
2022-10-17T18:53:30.573Z,18.37
2022-10-17T18:56:55.348Z,16.37
2022-10-17T19:00:19.056Z,22.60
2022-10-17T19:03:43.451Z,18.17
2022-10-17T19:07:07.072Z,16.17
2022-10-17T19:10:33.636Z,18.10
2022-10-17T19:13:58.469Z,20.13
2022-10-17T19:17:22.163Z,15.67
2022-10-17T19:20:45.974Z,13.03
2022-10-17T19:24:14.824Z,16.67
2022-10-17T19:27:39.960Z,16.10
2022-10-17T19:31:16.915Z,15.87
2022-10-17T19:34:42.994Z,17.17
2022-10-17T19:38:06.583Z,17.20
2022-10-17T19:41:30.308Z,18.60
2022-10-17T19:44:55.432Z,15.27
2022-10-17T19:48:18.942Z,14.20
2022-10-17T19:51:42.837Z,16.40
2022-10-17T19:55:07.177Z,13.80
2022-10-17T19:58:31.065Z,16.33
2022-10-17T20:01:55.913Z,20.03
2022-10-17T20:05:21.646Z,16.40
2022-10-17T20:08:47.430Z,18.10
2022-10-17T20:12:11.028Z,15.63
2022-10-17T20:15:34.966Z,18.33
2022-10-17T20:19:04.816Z,16.30
2022-10-17T20:22:28.678Z,16.87
2022-10-17T20:26:13.354Z,22.03
2022-10-17T20:29:43.592Z,18.80
2022-10-17T20:33:07.095Z,17.10
2022-10-17T20:36:36.532Z,16.33
2022-10-17T20:40:29.650Z,15.93
2022-10-17T20:43:43.775Z,20.27
2022-10-17T20:47:15.926Z,18.53
2022-10-17T20:50:40.033Z,22.47
2022-10-17T20:54:05.282Z,19.30
2022-10-17T20:57:28.975Z,18.07
2022-10-17T21:00:52.752Z,23.80
2022-10-17T21:04:44.011Z,22.93
2022-10-17T21:08:02.500Z,18.20
2022-10-17T21:11:29.117Z,18.40
2022-10-17T21:14:52.727Z,22.80
2022-10-17T21:18:16.406Z,24.00
2022-10-17T21:21:42.861Z,25.73
2022-10-17T21:25:07.454Z,23.33
2022-10-17T21:28:33.884Z,18.67
2022-10-17T21:31:57.533Z,19.97
2022-10-17T21:35:21.117Z,19.30
2022-10-17T21:38:45.693Z,22.53
2022-10-17T21:42:09.426Z,21.40
2022-10-17T21:45:36.984Z,21.00
2022-10-17T21:49:01.343Z,21.80
2022-10-17T21:52:24.917Z,23.37
2022-10-17T21:55:48.653Z,22.20
2022-10-17T21:59:12.609Z,21.80
2022-10-17T22:02:37.655Z,26.87
2022-10-17T22:06:12.915Z,23.67
2022-10-17T22:09:44.964Z,26.40
2022-10-17T22:13:08.589Z,27.97
2022-10-17T22:16:32.438Z,23.43
2022-10-17T22:19:57.330Z,23.60
2022-10-17T22:23:20.966Z,24.13
2022-10-17T22:26:47.242Z,24.70
2022-10-17T22:30:12.027Z,22.90
2022-10-17T22:33:37.649Z,28.17
2022-10-17T22:37:03.542Z,24.80
2022-10-17T22:40:27.251Z,27.50
2022-10-17T22:43:51.930Z,26.13
2022-10-17T22:47:15.871Z,21.40
2022-10-17T22:50:42.631Z,20.97
2022-10-17T22:54:09.304Z,28.20
2022-10-17T22:57:32.863Z,21.23
2022-10-17T23:00:57.891Z,26.13
2022-10-17T23:04:21.860Z,29.70
2022-10-17T23:07:45.946Z,29.70
2022-10-17T23:11:12.072Z,26.20
2022-10-17T23:14:38.770Z,27.77
2022-10-17T23:18:03.533Z,28.33
2022-10-17T23:21:27.977Z,27.60
2022-10-17T23:24:52.163Z,25.40
2022-10-17T23:28:17.698Z,26.80
2022-10-17T23:31:41.994Z,29.30
2022-10-17T23:35:06.694Z,31.90
2022-10-17T23:38:30.931Z,30.40
2022-10-17T23:41:54.997Z,29.50
2022-10-17T23:45:20.610Z,29.83
2022-10-17T23:48:45.016Z,26.37
2022-10-17T23:52:09.015Z,26.97
2022-10-17T23:55:33.022Z,34.23
2022-10-17T23:58:56.907Z,31.70
